sensor_id;sensor_type;location;lat;lon;timestamp;pressure;altitude;pressure_sealevel;temperature
71897;BMP280;59767;51.344;12.362;2022-09-23T00:00:39;100893.47;;;9.34
71897;BMP280;59767;51.344;12.362;2022-09-23T00:03:45;100896.13;;;9.32
71897;BMP280;59767;51.344;12.362;2022-09-23T00:06:50;100898.09;;;9.29
71897;BMP280;59767;51.344;12.362;2022-09-23T00:09:54;100900.91;;;9.26
71897;BMP280;59767;51.344;12.362;2022-09-23T00:12:58;100894.34;;;9.23
71897;BMP280;59767;51.344;12.362;2022-09-23T00:16:08;100898.22;;;9.18
71897;BMP280;59767;51.344;12.362;2022-09-23T00:19:12;100893.97;;;9.18
71897;BMP280;59767;51.344;12.362;2022-09-23T00:22:16;100893.41;;;9.15
71897;BMP280;59767;51.344;12.362;2022-09-23T00:25:20;100893.94;;;9.09
71897;BMP280;59767;51.344;12.362;2022-09-23T00:28:24;100884.28;;;9.02
71897;BMP280;59767;51.344;12.362;2022-09-23T00:31:28;100882.06;;;9.00
71897;BMP280;59767;51.344;12.362;2022-09-23T00:34:32;100880.72;;;8.96
71897;BMP280;59767;51.344;12.362;2022-09-23T00:37:36;100878.56;;;8.91
71897;BMP280;59767;51.344;12.362;2022-09-23T00:40:42;100884.53;;;8.90
71897;BMP280;59767;51.344;12.362;2022-09-23T00:43:49;100874.56;;;8.88
71897;BMP280;59767;51.344;12.362;2022-09-23T00:46:55;100872.72;;;8.91
71897;BMP280;59767;51.344;12.362;2022-09-23T00:50:09;100876.44;;;8.87
71897;BMP280;59767;51.344;12.362;2022-09-23T00:53:17;100869.75;;;8.85
71897;BMP280;59767;51.344;12.362;2022-09-23T00:56:23;100868.03;;;8.86
71897;BMP280;59767;51.344;12.362;2022-09-23T00:59:27;100859.22;;;8.80
71897;BMP280;59767;51.344;12.362;2022-09-23T01:02:31;100866.16;;;8.78
71897;BMP280;59767;51.344;12.362;2022-09-23T01:05:35;100866.06;;;8.90
71897;BMP280;59767;51.344;12.362;2022-09-23T01:08:42;100864.31;;;8.90
71897;BMP280;59767;51.344;12.362;2022-09-23T01:12:23;100857.81;;;8.97
71897;BMP280;59767;51.344;12.362;2022-09-23T01:16:17;100863.25;;;8.93
71897;BMP280;59767;51.344;12.362;2022-09-23T01:19:23;100853.13;;;8.83
71897;BMP280;59767;51.344;12.362;2022-09-23T01:22:39;100842.47;;;8.79
71897;BMP280;59767;51.344;12.362;2022-09-23T01:26:05;100843.75;;;8.74
71897;BMP280;59767;51.344;12.362;2022-09-23T01:36:01;100843.41;;;8.78
71897;BMP280;59767;51.344;12.362;2022-09-23T01:42:40;100840.03;;;8.68
71897;BMP280;59767;51.344;12.362;2022-09-23T01:45:46;100838.81;;;8.72
71897;BMP280;59767;51.344;12.362;2022-09-23T01:49:00;100841.53;;;8.80
71897;BMP280;59767;51.344;12.362;2022-09-23T01:52:09;100827.31;;;8.79
71897;BMP280;59767;51.344;12.362;2022-09-23T01:55:23;100819.19;;;8.85
71897;BMP280;59767;51.344;12.362;2022-09-23T01:58:39;100814.00;;;8.87
71897;BMP280;59767;51.344;12.362;2022-09-23T02:01:51;100815.63;;;8.88
71897;BMP280;59767;51.344;12.362;2022-09-23T02:05:09;100810.16;;;8.93
71897;BMP280;59767;51.344;12.362;2022-09-23T02:08:19;100812.28;;;8.88
71897;BMP280;59767;51.344;12.362;2022-09-23T02:11:25;100797.00;;;8.89
71897;BMP280;59767;51.344;12.362;2022-09-23T02:14:34;100796.19;;;8.88
71897;BMP280;59767;51.344;12.362;2022-09-23T02:17:48;100796.19;;;8.88
71897;BMP280;59767;51.344;12.362;2022-09-23T02:21:01;100793.00;;;8.87
71897;BMP280;59767;51.344;12.362;2022-09-23T02:24:13;100801.50;;;8.85
71897;BMP280;59767;51.344;12.362;2022-09-23T02:30:45;100799.78;;;8.86
71897;BMP280;59767;51.344;12.362;2022-09-23T02:34:15;100779.78;;;8.73
71897;BMP280;59767;51.344;12.362;2022-09-23T02:37:38;100784.72;;;8.75
71897;BMP280;59767;51.344;12.362;2022-09-23T02:44:20;100782.19;;;8.75
71897;BMP280;59767;51.344;12.362;2022-09-23T02:47:29;100774.59;;;8.65
71897;BMP280;59767;51.344;12.362;2022-09-23T02:50:35;100785.75;;;8.72
71897;BMP280;59767;51.344;12.362;2022-09-23T02:53:39;100776.16;;;8.66
71897;BMP280;59767;51.344;12.362;2022-09-23T02:56:43;100775.38;;;8.66
71897;BMP280;59767;51.344;12.362;2022-09-23T02:59:47;100784.13;;;8.62
71897;BMP280;59767;51.344;12.362;2022-09-23T03:03:08;100782.25;;;8.54
71897;BMP280;59767;51.344;12.362;2022-09-23T03:06:38;100784.78;;;8.54
71897;BMP280;59767;51.344;12.362;2022-09-23T03:09:58;100774.19;;;8.60
71897;BMP280;59767;51.344;12.362;2022-09-23T03:13:30;100770.16;;;8.58
71897;BMP280;59767;51.344;12.362;2022-09-23T03:16:48;100761.63;;;8.49
71897;BMP280;59767;51.344;12.362;2022-09-23T03:20:02;100766.13;;;8.46
71897;BMP280;59767;51.344;12.362;2022-09-23T03:23:09;100770.00;;;8.40
71897;BMP280;59767;51.344;12.362;2022-09-23T03:26:23;100760.34;;;8.34
71897;BMP280;59767;51.344;12.362;2022-09-23T03:29:31;100764.25;;;8.38
71897;BMP280;59767;51.344;12.362;2022-09-23T03:32:36;100766.78;;;8.38
71897;BMP280;59767;51.344;12.362;2022-09-23T03:35:51;100755.06;;;8.37
71897;BMP280;59767;51.344;12.362;2022-09-23T03:39:25;100752.41;;;8.39
71897;BMP280;59767;51.344;12.362;2022-09-23T03:42:32;100753.47;;;8.36
71897;BMP280;59767;51.344;12.362;2022-09-23T03:45:37;100750.00;;;8.37
71897;BMP280;59767;51.344;12.362;2022-09-23T03:48:42;100751.63;;;8.38
71897;BMP280;59767;51.344;12.362;2022-09-23T03:51:47;100752.00;;;8.34
71897;BMP280;59767;51.344;12.362;2022-09-23T03:54:52;100745.47;;;8.31
71897;BMP280;59767;51.344;12.362;2022-09-23T03:57:56;100736.16;;;8.32
71897;BMP280;59767;51.344;12.362;2022-09-23T04:01:00;100743.72;;;8.32
71897;BMP280;59767;51.344;12.362;2022-09-23T04:04:04;100726.75;;;8.34
71897;BMP280;59767;51.344;12.362;2022-09-23T04:07:09;100728.34;;;8.35
71897;BMP280;59767;51.344;12.362;2022-09-23T04:10:13;100726.88;;;8.32
71897;BMP280;59767;51.344;12.362;2022-09-23T04:13:18;100717.69;;;8.31
71897;BMP280;59767;51.344;12.362;2022-09-23T04:16:23;100708.66;;;8.29
71897;BMP280;59767;51.344;12.362;2022-09-23T04:19:27;100707.97;;;8.27
71897;BMP280;59767;51.344;12.362;2022-09-23T04:22:32;100707.16;;;8.26
71897;BMP280;59767;51.344;12.362;2022-09-23T04:25:46;100709.41;;;8.20
71897;BMP280;59767;51.344;12.362;2022-09-23T04:28:50;100717.09;;;8.18
71897;BMP280;59767;51.344;12.362;2022-09-23T04:31:54;100723.09;;;8.17
71897;BMP280;59767;51.344;12.362;2022-09-23T04:34:58;100712.66;;;8.11
71897;BMP280;59767;51.344;12.362;2022-09-23T04:38:04;100706.84;;;8.10
71897;BMP280;59767;51.344;12.362;2022-09-23T04:41:08;100707.22;;;8.06
71897;BMP280;59767;51.344;12.362;2022-09-23T04:44:13;100705.25;;;8.09
71897;BMP280;59767;51.344;12.362;2022-09-23T04:47:17;100706.84;;;8.10
71897;BMP280;59767;51.344;12.362;2022-09-23T04:50:23;100704.13;;;8.02
71897;BMP280;59767;51.344;12.362;2022-09-23T04:53:28;100706.56;;;8.04
71897;BMP280;59767;51.344;12.362;2022-09-23T04:56:33;100700.16;;;8.00
71897;BMP280;59767;51.344;12.362;2022-09-23T04:59:37;100703.28;;;7.92
71897;BMP280;59767;51.344;12.362;2022-09-23T05:02:45;100704.19;;;7.91
71897;BMP280;59767;51.344;12.362;2022-09-23T05:05:49;100696.16;;;7.97
71897;BMP280;59767;51.344;12.362;2022-09-23T05:08:55;100701.72;;;8.01
71897;BMP280;59767;51.344;12.362;2022-09-23T05:11:59;100701.72;;;8.01
71897;BMP280;59767;51.344;12.362;2022-09-23T05:15:03;100696.44;;;8.04
71897;BMP280;59767;51.344;12.362;2022-09-23T05:18:08;100702.28;;;8.04
71897;BMP280;59767;51.344;12.362;2022-09-23T05:21:15;100699.50;;;8.07
71897;BMP280;59767;51.344;12.362;2022-09-23T05:24:19;100696.63;;;8.12
71897;BMP280;59767;51.344;12.362;2022-09-23T05:27:24;100710.84;;;8.13
71897;BMP280;59767;51.344;12.362;2022-09-23T05:30:28;100697.03;;;8.17
71897;BMP280;59767;51.344;12.362;2022-09-23T05:33:34;100701.16;;;8.18
71897;BMP280;59767;51.344;12.362;2022-09-23T05:36:38;100697.72;;;8.19
71897;BMP280;59767;51.344;12.362;2022-09-23T05:39:42;100700.66;;;8.24
71897;BMP280;59767;51.344;12.362;2022-09-23T05:42:46;100696.53;;;8.23
71897;BMP280;59767;51.344;12.362;2022-09-23T05:45:51;100691.34;;;8.24
71897;BMP280;59767;51.344;12.362;2022-09-23T05:48:56;100696.28;;;8.26
71897;BMP280;59767;51.344;12.362;2022-09-23T05:52:05;100692.84;;;8.36
71897;BMP280;59767;51.344;12.362;2022-09-23T05:55:09;100696.44;;;8.34
71897;BMP280;59767;51.344;12.362;2022-09-23T05:58:14;100697.66;;;8.39
71897;BMP280;59767;51.344;12.362;2022-09-23T06:01:21;100696.22;;;8.46
71897;BMP280;59767;51.344;12.362;2022-09-23T06:04:26;100693.69;;;8.46
71897;BMP280;59767;51.344;12.362;2022-09-23T06:07:30;100695.16;;;8.58
71897;BMP280;59767;51.344;12.362;2022-09-23T06:10:39;100704.47;;;8.58
71897;BMP280;59767;51.344;12.362;2022-09-23T06:13:44;100702.47;;;8.61
71897;BMP280;59767;51.344;12.362;2022-09-23T06:16:48;100705.56;;;8.74
71897;BMP280;59767;51.344;12.362;2022-09-23T06:19:54;100703.72;;;8.76
71897;BMP280;59767;51.344;12.362;2022-09-23T06:23:08;100708.41;;;8.91
71897;BMP280;59767;51.344;12.362;2022-09-23T06:26:15;100707.44;;;8.91
71897;BMP280;59767;51.344;12.362;2022-09-23T06:29:19;100706.66;;;9.01
71897;BMP280;59767;51.344;12.362;2022-09-23T06:32:23;100705.19;;;9.08
71897;BMP280;59767;51.344;12.362;2022-09-23T06:35:27;100701.59;;;9.10
71897;BMP280;59767;51.344;12.362;2022-09-23T06:38:33;100700.78;;;9.19
71897;BMP280;59767;51.344;12.362;2022-09-23T06:41:37;100695.34;;;9.33
71897;BMP280;59767;51.344;12.362;2022-09-23T06:44:42;100705.72;;;9.40
71897;BMP280;59767;51.344;12.362;2022-09-23T06:47:46;100701.69;;;9.66
71897;BMP280;59767;51.344;12.362;2022-09-23T06:50:53;100707.34;;;9.87
71897;BMP280;59767;51.344;12.362;2022-09-23T06:53:57;100715.72;;;9.97
71897;BMP280;59767;51.344;12.362;2022-09-23T06:57:05;100711.69;;;10.04
71897;BMP280;59767;51.344;12.362;2022-09-23T07:00:09;100707.91;;;10.08
71897;BMP280;59767;51.344;12.362;2022-09-23T07:03:14;100713.47;;;10.21
71897;BMP280;59767;51.344;12.362;2022-09-23T07:06:18;100705.56;;;10.24
71897;BMP280;59767;51.344;12.362;2022-09-23T07:09:23;100704.84;;;10.31
71897;BMP280;59767;51.344;12.362;2022-09-23T07:12:27;100707.72;;;10.46
71897;BMP280;59767;51.344;12.362;2022-09-23T07:15:31;100703.88;;;10.42
71897;BMP280;59767;51.344;12.362;2022-09-23T07:18:37;100708.47;;;10.56
71897;BMP280;59767;51.344;12.362;2022-09-23T07:21:41;100704.56;;;10.61
71897;BMP280;59767;51.344;12.362;2022-09-23T07:24:45;100705.00;;;10.74
71897;BMP280;59767;51.344;12.362;2022-09-23T07:27:50;100696.25;;;10.86
71897;BMP280;59767;51.344;12.362;2022-09-23T07:30:54;100701.88;;;10.98
71897;BMP280;59767;51.344;12.362;2022-09-23T07:34:03;100717.31;;;11.04
71897;BMP280;59767;51.344;12.362;2022-09-23T07:37:07;100714.34;;;11.09
71897;BMP280;59767;51.344;12.362;2022-09-23T07:40:12;100714.75;;;11.22
71897;BMP280;59767;51.344;12.362;2022-09-23T07:43:16;100716.16;;;11.42
71897;BMP280;59767;51.344;12.362;2022-09-23T07:46:21;100706.06;;;11.50
71897;BMP280;59767;51.344;12.362;2022-09-23T07:49:26;100716.13;;;11.59
71897;BMP280;59767;51.344;12.362;2022-09-23T07:52:30;100713.50;;;11.77
71897;BMP280;59767;51.344;12.362;2022-09-23T07:55:34;100711.66;;;11.87
71897;BMP280;59767;51.344;12.362;2022-09-23T07:58:39;100722.50;;;12.05
71897;BMP280;59767;51.344;12.362;2022-09-23T08:01:46;100716.88;;;12.27
71897;BMP280;59767;51.344;12.362;2022-09-23T08:04:51;100712.03;;;12.65
71897;BMP280;59767;51.344;12.362;2022-09-23T08:07:56;100709.16;;;13.00
71897;BMP280;59767;51.344;12.362;2022-09-23T08:11:02;100716.34;;;12.97
71897;BMP280;59767;51.344;12.362;2022-09-23T08:14:11;100710.28;;;12.90
71897;BMP280;59767;51.344;12.362;2022-09-23T08:17:16;100719.19;;;13.02
71897;BMP280;59767;51.344;12.362;2022-09-23T08:20:20;100709.34;;;12.99
71897;BMP280;59767;51.344;12.362;2022-09-23T08:23:49;100710.44;;;12.96
71897;BMP280;59767;51.344;12.362;2022-09-23T08:26:53;100709.78;;;13.02
71897;BMP280;59767;51.344;12.362;2022-09-23T08:29:57;100710.72;;;13.17
71897;BMP280;59767;51.344;12.362;2022-09-23T08:33:01;100702.13;;;13.18
71897;BMP280;59767;51.344;12.362;2022-09-23T08:36:06;100698.50;;;13.29
71897;BMP280;59767;51.344;12.362;2022-09-23T08:39:17;100702.72;;;13.36
71897;BMP280;59767;51.344;12.362;2022-09-23T08:42:27;100698.84;;;13.56
71897;BMP280;59767;51.344;12.362;2022-09-23T08:45:34;100701.53;;;13.71
71897;BMP280;59767;51.344;12.362;2022-09-23T08:48:44;100698.75;;;13.80
71897;BMP280;59767;51.344;12.362;2022-09-23T08:51:50;100704.41;;;13.98
71897;BMP280;59767;51.344;12.362;2022-09-23T08:54:57;100680.44;;;14.15
71897;BMP280;59767;51.344;12.362;2022-09-23T08:58:32;100692.78;;;14.49
71897;BMP280;59767;51.344;12.362;2022-09-23T09:01:45;100687.34;;;14.52
71897;BMP280;59767;51.344;12.362;2022-09-23T09:04:57;100688.44;;;14.57
71897;BMP280;59767;51.344;12.362;2022-09-23T09:08:03;100679.03;;;14.72
71897;BMP280;59767;51.344;12.362;2022-09-23T09:11:10;100675.59;;;14.80
71897;BMP280;59767;51.344;12.362;2022-09-23T09:14:21;100674.94;;;14.86
71897;BMP280;59767;51.344;12.362;2022-09-23T09:24:01;100669.44;;;14.74
71897;BMP280;59767;51.344;12.362;2022-09-23T09:27:10;100673.41;;;14.77
71897;BMP280;59767;51.344;12.362;2022-09-23T09:30:16;100669.13;;;14.92
71897;BMP280;59767;51.344;12.362;2022-09-23T09:33:52;100666.88;;;15.11
71897;BMP280;59767;51.344;12.362;2022-09-23T09:37:18;100668.81;;;15.24
71897;BMP280;59767;51.344;12.362;2022-09-23T09:40:23;100670.97;;;15.56
71897;BMP280;59767;51.344;12.362;2022-09-23T09:43:28;100658.28;;;15.48
71897;BMP280;59767;51.344;12.362;2022-09-23T09:49:58;100649.41;;;15.44
71897;BMP280;59767;51.344;12.362;2022-09-23T09:56:30;100644.81;;;15.54
71897;BMP280;59767;51.344;12.362;2022-09-23T09:59:35;100645.66;;;15.61
71897;BMP280;59767;51.344;12.362;2022-09-23T10:02:45;100637.31;;;15.67
71897;BMP280;59767;51.344;12.362;2022-09-23T10:05:51;100638.94;;;15.74
71897;BMP280;59767;51.344;12.362;2022-09-23T10:09:10;100629.16;;;15.99
71897;BMP280;59767;51.344;12.362;2022-09-23T10:12:22;100621.56;;;15.91
71897;BMP280;59767;51.344;12.362;2022-09-23T10:15:32;100622.22;;;15.93
71897;BMP280;59767;51.344;12.362;2022-09-23T10:18:50;100622.13;;;16.07
71897;BMP280;59767;51.344;12.362;2022-09-23T10:22:16;100619.66;;;16.14
71897;BMP280;59767;51.344;12.362;2022-09-23T10:25:29;100620.44;;;16.21
71897;BMP280;59767;51.344;12.362;2022-09-23T10:28:51;100625.09;;;16.32
71897;BMP280;59767;51.344;12.362;2022-09-23T10:32:22;100621.69;;;16.46
71897;BMP280;59767;51.344;12.362;2022-09-23T10:35:52;100621.00;;;16.65
71897;BMP280;59767;51.344;12.362;2022-09-23T10:39:08;100619.44;;;16.70
71897;BMP280;59767;51.344;12.362;2022-09-23T10:42:53;100619.38;;;16.91
71897;BMP280;59767;51.344;12.362;2022-09-23T10:46:35;100622.31;;;16.88
71897;BMP280;59767;51.344;12.362;2022-09-23T10:56:57;100599.66;;;16.85
71897;BMP280;59767;51.344;12.362;2022-09-23T11:04:04;100585.50;;;16.96
71897;BMP280;59767;51.344;12.362;2022-09-23T11:08:01;100587.56;;;17.20
71897;BMP280;59767;51.344;12.362;2022-09-23T11:11:02;100583.47;;;17.25
71897;BMP280;59767;51.344;12.362;2022-09-23T11:14:49;100575.34;;;17.15
71897;BMP280;59767;51.344;12.362;2022-09-23T11:22:08;100573.16;;;17.06
71897;BMP280;59767;51.344;12.362;2022-09-23T11:29:24;100560.41;;;17.25
71897;BMP280;59767;51.344;12.362;2022-09-23T11:32:53;100567.25;;;17.18
71897;BMP280;59767;51.344;12.362;2022-09-23T11:36:24;100556.66;;;17.41
71897;BMP280;59767;51.344;12.362;2022-09-23T11:39:35;100553.13;;;17.42
71897;BMP280;59767;51.344;12.362;2022-09-23T11:43:02;100548.81;;;17.55
71897;BMP280;59767;51.344;12.362;2022-09-23T11:46:39;100545.25;;;17.43
71897;BMP280;59767;51.344;12.362;2022-09-23T11:49:59;100542.28;;;17.46
71897;BMP280;59767;51.344;12.362;2022-09-23T11:56:32;100533.63;;;17.67
71897;BMP280;59767;51.344;12.362;2022-09-23T11:59:52;100522.97;;;17.44
71897;BMP280;59767;51.344;12.362;2022-09-23T12:03:37;100522.72;;;17.26
71897;BMP280;59767;51.344;12.362;2022-09-23T12:06:53;100520.91;;;17.07
71897;BMP280;59767;51.344;12.362;2022-09-23T12:10:07;100515.75;;;16.94
71897;BMP280;59767;51.344;12.362;2022-09-23T12:13:16;100510.81;;;16.92
71897;BMP280;59767;51.344;12.362;2022-09-23T12:16:35;100504.22;;;17.17
71897;BMP280;59767;51.344;12.362;2022-09-23T12:23:20;100500.69;;;17.64
71897;BMP280;59767;51.344;12.362;2022-09-23T12:26:29;100501.88;;;17.81
71897;BMP280;59767;51.344;12.362;2022-09-23T12:29:36;100496.56;;;17.82
71897;BMP280;59767;51.344;12.362;2022-09-23T12:32:41;100503.25;;;17.70
71897;BMP280;59767;51.344;12.362;2022-09-23T12:35:46;100492.59;;;17.60
71897;BMP280;59767;51.344;12.362;2022-09-23T12:38:53;100491.25;;;17.64
71897;BMP280;59767;51.344;12.362;2022-09-23T12:42:04;100492.97;;;17.90
71897;BMP280;59767;51.344;12.362;2022-09-23T12:45:33;100486.84;;;18.04
71897;BMP280;59767;51.344;12.362;2022-09-23T12:48:56;100485.06;;;18.11
71897;BMP280;59767;51.344;12.362;2022-09-23T13:01:51;100473.44;;;17.89
71897;BMP280;59767;51.344;12.362;2022-09-23T13:05:01;100465.72;;;17.89
71897;BMP280;59767;51.344;12.362;2022-09-23T13:08:24;100469.91;;;17.90
71897;BMP280;59767;51.344;12.362;2022-09-23T13:11:29;100464.16;;;17.88
71897;BMP280;59767;51.344;12.362;2022-09-23T13:14:34;100452.97;;;17.82
71897;BMP280;59767;51.344;12.362;2022-09-23T13:17:39;100449.41;;;17.70
71897;BMP280;59767;51.344;12.362;2022-09-23T13:20:44;100448.06;;;17.68
71897;BMP280;59767;51.344;12.362;2022-09-23T13:27:32;100442.13;;;17.67
71897;BMP280;59767;51.344;12.362;2022-09-23T13:30:46;100430.47;;;17.78
71897;BMP280;59767;51.344;12.362;2022-09-23T13:33:55;100428.91;;;17.77
71897;BMP280;59767;51.344;12.362;2022-09-23T13:37:23;100409.59;;;17.68
71897;BMP280;59767;51.344;12.362;2022-09-23T13:40:28;100411.56;;;17.72
71897;BMP280;59767;51.344;12.362;2022-09-23T13:43:38;100408.91;;;17.98
71897;BMP280;59767;51.344;12.362;2022-09-23T13:46:48;100404.00;;;17.97
71897;BMP280;59767;51.344;12.362;2022-09-23T13:49:53;100403.66;;;17.87
71897;BMP280;59767;51.344;12.362;2022-09-23T13:53:00;100393.84;;;17.64
71897;BMP280;59767;51.344;12.362;2022-09-23T13:56:12;100393.03;;;17.51
71897;BMP280;59767;51.344;12.362;2022-09-23T13:59:26;100391.91;;;17.40
71897;BMP280;59767;51.344;12.362;2022-09-23T14:02:31;100384.78;;;17.36
71897;BMP280;59767;51.344;12.362;2022-09-23T14:05:37;100380.69;;;17.35
71897;BMP280;59767;51.344;12.362;2022-09-23T14:08:46;100380.47;;;17.30
71897;BMP280;59767;51.344;12.362;2022-09-23T14:11:50;100376.13;;;17.24
71897;BMP280;59767;51.344;12.362;2022-09-23T14:14:54;100372.97;;;17.22
71897;BMP280;59767;51.344;12.362;2022-09-23T14:18:02;100379.88;;;17.28
71897;BMP280;59767;51.344;12.362;2022-09-23T14:21:32;100374.53;;;17.36
71897;BMP280;59767;51.344;12.362;2022-09-23T14:24:38;100366.44;;;17.45
71897;BMP280;59767;51.344;12.362;2022-09-23T14:27:43;100367.63;;;17.49
71897;BMP280;59767;51.344;12.362;2022-09-23T14:30:50;100360.31;;;17.46
71897;BMP280;59767;51.344;12.362;2022-09-23T14:33:55;100370.97;;;17.50
71897;BMP280;59767;51.344;12.362;2022-09-23T14:40:56;100359.44;;;17.85
71897;BMP280;59767;51.344;12.362;2022-09-23T14:44:21;100355.47;;;17.89
71897;BMP280;59767;51.344;12.362;2022-09-23T14:47:27;100354.34;;;17.78
71897;BMP280;59767;51.344;12.362;2022-09-23T14:50:32;100343.38;;;17.52
71897;BMP280;59767;51.344;12.362;2022-09-23T14:53:44;100335.72;;;17.32
71897;BMP280;59767;51.344;12.362;2022-09-23T14:56:52;100331.00;;;17.23
71897;BMP280;59767;51.344;12.362;2022-09-23T15:00:16;100335.72;;;17.13
71897;BMP280;59767;51.344;12.362;2022-09-23T15:03:21;100333.56;;;17.10
71897;BMP280;59767;51.344;12.362;2022-09-23T15:06:26;100334.16;;;17.12
71897;BMP280;59767;51.344;12.362;2022-09-23T15:09:34;100339.50;;;17.10
71897;BMP280;59767;51.344;12.362;2022-09-23T15:12:39;100333.97;;;17.13
71897;BMP280;59767;51.344;12.362;2022-09-23T15:15:43;100330.59;;;17.13
71897;BMP280;59767;51.344;12.362;2022-09-23T15:18:55;100324.13;;;17.10
71897;BMP280;59767;51.344;12.362;2022-09-23T15:22:00;100326.69;;;17.10
71897;BMP280;59767;51.344;12.362;2022-09-23T15:25:26;100320.78;;;17.10
71897;BMP280;59767;51.344;12.362;2022-09-23T15:28:33;100320.78;;;17.10
71897;BMP280;59767;51.344;12.362;2022-09-23T15:31:37;100316.66;;;17.09
71897;BMP280;59767;51.344;12.362;2022-09-23T15:34:41;100315.66;;;17.10
71897;BMP280;59767;51.344;12.362;2022-09-23T15:37:47;100316.03;;;17.13
71897;BMP280;59767;51.344;12.362;2022-09-23T15:40:52;100316.03;;;17.20
71897;BMP280;59767;51.344;12.362;2022-09-23T15:43:57;100314.28;;;17.14
71897;BMP280;59767;51.344;12.362;2022-09-23T15:47:01;100312.69;;;17.06
71897;BMP280;59767;51.344;12.362;2022-09-23T15:50:05;100308.34;;;16.94
71897;BMP280;59767;51.344;12.362;2022-09-23T15:53:15;100304.81;;;16.82
71897;BMP280;59767;51.344;12.362;2022-09-23T15:56:21;100298.53;;;16.71
71897;BMP280;59767;51.344;12.362;2022-09-23T15:59:26;100299.69;;;16.62
71897;BMP280;59767;51.344;12.362;2022-09-23T16:02:31;100298.13;;;16.55
71897;BMP280;59767;51.344;12.362;2022-09-23T16:05:38;100294.75;;;16.54
71897;BMP280;59767;51.344;12.362;2022-09-23T16:08:42;100293.59;;;16.50
71897;BMP280;59767;51.344;12.362;2022-09-23T16:11:47;100293.38;;;16.45
71897;BMP280;59767;51.344;12.362;2022-09-23T16:14:51;100296.75;;;16.46
71897;BMP280;59767;51.344;12.362;2022-09-23T16:17:56;100292.59;;;16.58
71897;BMP280;59767;51.344;12.362;2022-09-23T16:21:10;100294.16;;;16.59
71897;BMP280;59767;51.344;12.362;2022-09-23T16:24:17;100291.63;;;16.52
71897;BMP280;59767;51.344;12.362;2022-09-23T16:27:21;100292.97;;;16.42
71897;BMP280;59767;51.344;12.362;2022-09-23T16:30:26;100287.63;;;16.37
71897;BMP280;59767;51.344;12.362;2022-09-23T16:33:30;100278.75;;;16.26
71897;BMP280;59767;51.344;12.362;2022-09-23T16:36:38;100287.44;;;16.19
71897;BMP280;59767;51.344;12.362;2022-09-23T16:39:43;100289.00;;;16.20
71897;BMP280;59767;51.344;12.362;2022-09-23T16:42:48;100287.97;;;16.21
71897;BMP280;59767;51.344;12.362;2022-09-23T16:45:52;100287.00;;;16.09
71897;BMP280;59767;51.344;12.362;2022-09-23T16:48:57;100279.06;;;15.97
71897;BMP280;59767;51.344;12.362;2022-09-23T16:52:01;100293.19;;;15.87
71897;BMP280;59767;51.344;12.362;2022-09-23T16:55:06;100280.56;;;15.79
71897;BMP280;59767;51.344;12.362;2022-09-23T16:58:11;100286.66;;;15.71
71897;BMP280;59767;51.344;12.362;2022-09-23T17:01:19;100288.53;;;15.63
71897;BMP280;59767;51.344;12.362;2022-09-23T17:04:42;100282.81;;;15.54
71897;BMP280;59767;51.344;12.362;2022-09-23T17:07:46;100278.03;;;15.45
71897;BMP280;59767;51.344;12.362;2022-09-23T17:10:58;100283.28;;;15.37
71897;BMP280;59767;51.344;12.362;2022-09-23T17:14:04;100284.41;;;15.28
71897;BMP280;59767;51.344;12.362;2022-09-23T17:17:08;100284.19;;;15.23
71897;BMP280;59767;51.344;12.362;2022-09-23T17:20:12;100287.47;;;15.17
71897;BMP280;59767;51.344;12.362;2022-09-23T17:23:17;100274.84;;;15.09
71897;BMP280;59767;51.344;12.362;2022-09-23T17:26:24;100278.75;;;15.05
71897;BMP280;59767;51.344;12.362;2022-09-23T17:29:28;100283.25;;;15.03
71897;BMP280;59767;51.344;12.362;2022-09-23T17:32:33;100286.75;;;14.95
71897;BMP280;59767;51.344;12.362;2022-09-23T17:35:40;100287.63;;;14.88
71897;BMP280;59767;51.344;12.362;2022-09-23T17:38:46;100279.75;;;14.83
71897;BMP280;59767;51.344;12.362;2022-09-23T17:41:51;100273.44;;;14.79
71897;BMP280;59767;51.344;12.362;2022-09-23T17:44:56;100267.16;;;14.81
71897;BMP280;59767;51.344;12.362;2022-09-23T17:48:02;100278.16;;;14.82
71897;BMP280;59767;51.344;12.362;2022-09-23T17:51:10;100280.66;;;14.75
71897;BMP280;59767;51.344;12.362;2022-09-23T17:54:14;100275.38;;;14.77
71897;BMP280;59767;51.344;12.362;2022-09-23T17:57:18;100274.53;;;14.70
71897;BMP280;59767;51.344;12.362;2022-09-23T18:00:22;100275.47;;;14.69
71897;BMP280;59767;51.344;12.362;2022-09-23T18:03:29;100282.94;;;14.70
71897;BMP280;59767;51.344;12.362;2022-09-23T18:06:35;100280.00;;;14.67
71897;BMP280;59767;51.344;12.362;2022-09-23T18:09:39;100278.41;;;14.66
71897;BMP280;59767;51.344;12.362;2022-09-23T18:12:43;100273.16;;;14.74
71897;BMP280;59767;51.344;12.362;2022-09-23T18:15:47;100267.72;;;14.77
71897;BMP280;59767;51.344;12.362;2022-09-23T18:18:58;100274.81;;;14.81
71897;BMP280;59767;51.344;12.362;2022-09-23T18:22:03;100271.97;;;14.70
71897;BMP280;59767;51.344;12.362;2022-09-23T18:25:07;100270.50;;;14.82
71897;BMP280;59767;51.344;12.362;2022-09-23T18:28:31;100270.03;;;14.72
71897;BMP280;59767;51.344;12.362;2022-09-23T18:31:38;100266.28;;;14.68
71897;BMP280;59767;51.344;12.362;2022-09-23T18:34:42;100271.63;;;14.73
71897;BMP280;59767;51.344;12.362;2022-09-23T18:37:46;100264.56;;;14.75
71897;BMP280;59767;51.344;12.362;2022-09-23T18:40:51;100272.56;;;14.72
71897;BMP280;59767;51.344;12.362;2022-09-23T18:43:58;100259.22;;;14.70
71897;BMP280;59767;51.344;12.362;2022-09-23T18:47:02;100260.91;;;14.63
71897;BMP280;59767;51.344;12.362;2022-09-23T18:50:10;100268.38;;;14.64
71897;BMP280;59767;51.344;12.362;2022-09-23T18:53:38;100265.19;;;14.62
71897;BMP280;59767;51.344;12.362;2022-09-23T18:56:44;100268.56;;;14.63
71897;BMP280;59767;51.344;12.362;2022-09-23T18:59:48;100272.28;;;14.60